Time;durP1;ratioP1;P1;durP2;ratioP2;P2;SDS_P1;SDS_P2;PMS_P1;PMS_P2;Temp;Humidity;BMP_temperature;BMP_pressure;BME280_temperature;BME280_humidity;BME280_pressure;Samples;Min_cycle;Max_cycle;Signal;HPM_P1;HPM_P2
2024/04/11 00:02:17;;;;;;;;;;;;;;;;;;5569931;25;19926;-71
2024/04/11 00:04:43;;;;;;;;;;;;;;;;;;5570318;25;19926;-72
2024/04/11 00:07:09;;;;;;;;;;;;;;;;;;5603491;25;19927;-71
2024/04/11 00:09:35;;;;;;;;;;;;;;;;;;5603806;25;19933;-71
2024/04/11 00:12:01;;;;;;;;;;;;;;;;;;5603838;25;20370;-72
2024/04/11 00:14:27;;;;;;;;;;;;;;;;;;5603251;25;20328;-71
2024/04/11 00:16:53;;;;;;;;;;;;;;;;;;5603659;25;20349;-72
2024/04/11 00:19:18;;;;;;;;;;;;;;;;;;5603702;25;19942;-71
2024/04/11 00:21:44;;;;;;;;;;;;;;;;;;5569821;25;19993;-71
2024/04/11 00:24:11;;;;;;;;;;;;;;;;;;5569977;25;19934;-71
2024/04/11 00:26:37;;;;;;;;;;;;;;;;;;5603052;25;19946;-71
2024/04/11 00:29:04;;;;;;;;;;;;;;;;;;5603566;25;20384;-71
2024/04/11 00:31:30;;;;;;;;;;;;;;;;;;5603574;25;19934;-72
2024/04/11 00:34:12;;;;;;;;;;;;;;;;;;5569411;25;19927;-72
2024/04/11 00:36:40;;;;;;;;;;;;;;;;;;5603156;25;20352;-72
2024/04/11 00:39:06;;;;;;;;;;;;;;;;;;5570015;25;19975;-72
2024/04/11 00:41:32;;;;;;;;;;;;;;;;;;5602936;25;20017;-72
2024/04/11 00:43:59;;;;;;;;;;;;;;;;;;5569892;25;19937;-72
2024/04/11 00:46:27;;;;;;;;;;;;;;;;;;5603237;25;20033;-72
2024/04/11 00:48:54;;;;;;;;;;;;;;;;;;5602732;25;19942;-72
2024/04/11 00:51:20;;;;;;;;;;;;;;;;;;5603211;25;19933;-72
2024/04/11 00:53:46;;;;;;;;;;;;;;;;;;5603306;25;19926;-72
2024/04/11 00:56:13;;;;;;;;;;;;;;;;;;5602775;25;19926;-71
2024/04/11 00:58:39;;;;;;;;;;;;;;;;;;5602974;25;20401;-72
2024/04/11 01:01:04;;;;;;;;;;;;;;;;;;5569549;25;19930;-71
2024/04/11 01:03:30;;;;;;;;;;;;;;;;;;5602503;25;19942;-71
2024/04/11 01:05:56;;;;;;;;;;;;;;;;;;5569512;25;19926;-71
2024/04/11 01:08:23;;;;;;;;;;;;;;;;;;5569260;25;19938;-72
2024/04/11 01:10:50;;;;;;;;;;;;;;;;;;5602415;25;19934;-72
2024/04/11 01:13:17;;;;;;;;;;;;;;;;;;5602325;25;19926;-72
2024/04/11 01:15:43;;;;;;;;;;;;;;;;;;5602233;25;19934;-72
2024/04/11 01:18:09;;;;;;;;;;;;;;;;;;5602636;25;19974;-72
2024/04/11 01:20:36;;;;;;;;;;;;;;;;;;5602825;25;19930;-72
2024/04/11 01:23:02;;;;;;;;;;;;;;;;;;5602164;25;19994;-72
2024/04/11 01:25:29;;;;;;;;;;;;;;;;;;5602654;25;19927;-71
2024/04/11 01:27:55;;;;;;;;;;;;;;;;;;5568975;25;19934;-71
2024/04/11 01:30:21;;;;;;;;;;;;;;;;;;5602132;25;19927;-71
2024/04/11 01:32:48;;;;;;;;;;;;;;;;;;5568941;25;19933;-72
2024/04/11 01:35:16;;;;;;;;;;;;;;;;;;5602391;25;20383;-72
2024/04/11 01:37:42;;;;;;;;;;;;;;;;;;5601896;25;20003;-72
2024/04/11 01:40:08;;;;;;;;;;;;;;;;;;5602631;25;19998;-72
2024/04/11 01:42:34;;;;;;;;;;;;;;;;;;5602593;25;20375;-72
2024/04/11 01:45:01;;;;;;;;;;;;;;;;;;5568508;25;20258;-72
2024/04/11 01:47:27;;;;;;;;;;;;;;;;;;5602350;25;19937;-72
2024/04/11 01:49:54;;;;;;;;;;;;;;;;;;5602376;25;19955;-72
2024/04/11 01:52:20;;;;;;;;;;;;;;;;;;5568481;25;19993;-72
2024/04/11 01:54:46;;;;;;;;;;;;;;;;;;5602267;25;19934;-72
2024/04/11 01:57:12;;;;;;;;;;;;;;;;;;5568836;25;19933;-72
2024/04/11 01:59:38;;;;;;;;;;;;;;;;;;5601746;25;19931;-72
2024/04/11 02:02:08;;;;;;;;;;;;;;;;;;5602284;25;19989;-72
2024/04/11 02:04:33;;;;;;;;;;;;;;;;;;5602572;25;19931;-72
2024/04/11 02:06:59;;;;;;;;;;;;;;;;;;5601687;25;19937;-72
2024/04/11 02:09:31;;;;;;;;;;;;;;;;;;5568694;25;20359;-71
2024/04/11 02:11:57;;;;;;;;;;;;;;;;;;5601605;25;19937;-72
2024/04/11 02:14:23;;;;;;;;;;;;;;;;;;5602178;25;20370;-72
2024/04/11 02:16:50;;;;;;;;;;;;;;;;;;5601916;25;20315;-72
2024/04/11 02:19:16;;;;;;;;;;;;;;;;;;5567998;25;19975;-72
2024/04/11 02:21:42;;;;;;;;;;;;;;;;;;5601883;25;19994;-74
2024/04/11 02:24:08;;;;;;;;;;;;;;;;;;5569949;25;20338;-70
2024/04/11 02:26:34;;;;;;;;;;;;;;;;;;5605168;25;19933;-71
2024/04/11 02:29:01;;;;;;;;;;;;;;;;;;5572203;25;19962;-71
2024/04/11 02:31:27;;;;;;;;;;;;;;;;;;5572038;25;19934;-71
2024/04/11 02:33:53;;;;;;;;;;;;;;;;;;5605012;25;19971;-71
2024/04/11 02:36:19;;;;;;;;;;;;;;;;;;5605126;25;19937;-71
2024/04/11 02:38:45;;;;;;;;;;;;;;;;;;5605491;25;20363;-72
2024/04/11 02:41:11;;;;;;;;;;;;;;;;;;5605007;25;20319;-72
2024/04/11 02:43:39;;;;;;;;;;;;;;;;;;5571851;25;20251;-72
2024/04/11 02:46:08;;;;;;;;;;;;;;;;;;5605348;25;20363;-71
2024/04/11 02:48:34;;;;;;;;;;;;;;;;;;5571196;25;20373;-71
2024/04/11 02:51:00;;;;;;;;;;;;;;;;;;5605275;25;19931;-72
2024/04/11 02:53:26;;;;;;;;;;;;;;;;;;5605303;25;19975;-72
2024/04/11 02:55:54;;;;;;;;;;;;;;;;;;5604774;25;19946;-72
2024/04/11 02:58:20;;;;;;;;;;;;;;;;;;5605129;25;20347;-72
2024/04/11 03:00:46;;;;;;;;;;;;;;;;;;5605075;25;19938;-71
2024/04/11 03:03:12;;;;;;;;;;;;;;;;;;5571202;25;19926;-71
2024/04/11 03:05:39;;;;;;;;;;;;;;;;;;5571555;25;19934;-71
2024/04/11 03:08:06;;;;;;;;;;;;;;;;;;5604997;25;19927;-72
2024/04/11 03:10:32;;;;;;;;;;;;;;;;;;5571198;25;19934;-71
2024/04/11 03:12:58;;;;;;;;;;;;;;;;;;5571393;25;19926;-71
2024/04/11 03:15:28;;;;;;;;;;;;;;;;;;5604507;25;19938;-71
2024/04/11 03:17:54;;;;;;;;;;;;;;;;;;5604714;25;20258;-71
2024/04/11 03:20:20;;;;;;;;;;;;;;;;;;5571321;25;19966;-71
2024/04/11 03:22:46;;;;;;;;;;;;;;;;;;5604364;25;19935;-71
2024/04/11 03:25:12;;;;;;;;;;;;;;;;;;5604809;25;20359;-71
2024/04/11 03:27:38;;;;;;;;;;;;;;;;;;5604709;25;20050;-71
2024/04/11 03:30:05;;;;;;;;;;;;;;;;;;5604356;25;19937;-71
2024/04/11 03:32:31;;;;;;;;;;;;;;;;;;5571194;25;19993;-71
2024/04/11 03:34:57;;;;;;;;;;;;;;;;;;5604569;25;19934;-71
2024/04/11 03:37:23;;;;;;;;;;;;;;;;;;5546355;25;20400;-71
2024/04/11 03:39:49;;;;;;;;;;;;;;;;;;5527019;26;19955;-71
2024/04/11 03:42:16;;;;;;;;;;;;;;;;;;5529041;26;19933;-71
2024/04/11 03:44:42;;;;;;;;;;;;;;;;;;5528435;25;20384;-71
2024/04/11 03:47:08;;;;;;;;;;;;;;;;;;5527010;26;19956;-71
2024/04/11 03:49:34;;;;;;;;;;;;;;;;;;5528982;25;20271;-71
2024/04/11 03:52:02;;;;;;;;;;;;;;;;;;5528181;25;19995;-71
2024/04/11 03:54:28;;;;;;;;;;;;;;;;;;5526941;26;19931;-71
2024/04/11 03:56:55;;;;;;;;;;;;;;;;;;5528688;26;19995;-71
2024/04/11 03:59:21;;;;;;;;;;;;;;;;;;5528139;25;20344;-71
2024/04/11 04:01:47;;;;;;;;;;;;;;;;;;5528673;25;19935;-71
2024/04/11 04:04:14;;;;;;;;;;;;;;;;;;5526769;26;19936;-71
2024/04/11 04:06:42;;;;;;;;;;;;;;;;;;5528014;25;19928;-71
2024/04/11 04:09:08;;;;;;;;;;;;;;;;;;5528467;25;19999;-71
2024/04/11 04:11:36;;;;;;;;;;;;;;;;;;5528148;26;20395;-71
2024/04/11 04:14:02;;;;;;;;;;;;;;;;;;5528355;25;19935;-72
2024/04/11 04:16:28;;;;;;;;;;;;;;;;;;5526515;26;19939;-72
2024/04/11 04:18:56;;;;;;;;;;;;;;;;;;5525747;26;19959;-71
2024/04/11 04:21:26;;;;;;;;;;;;;;;;;;5528367;25;19953;-71
2024/04/11 04:23:55;;;;;;;;;;;;;;;;;;5526360;25;19928;-72
2024/04/11 04:26:21;;;;;;;;;;;;;;;;;;5527868;25;19927;-72
2024/04/11 04:28:48;;;;;;;;;;;;;;;;;;5526451;26;19995;-72
2024/04/11 04:31:14;;;;;;;;;;;;;;;;;;5528194;25;19935;-73
2024/04/11 04:33:40;;;;;;;;;;;;;;;;;;5527712;25;19932;-72
2024/04/11 04:36:06;;;;;;;;;;;;;;;;;;5524787;26;19927;-73
2024/04/11 04:38:32;;;;;;;;;;;;;;;;;;5596304;25;19926;-73
2024/04/11 04:40:58;;;;;;;;;;;;;;;;;;5599831;25;19927;-73
2024/04/11 04:43:25;;;;;;;;;;;;;;;;;;5600186;25;19938;-73
2024/04/11 04:45:52;;;;;;;;;;;;;;;;;;5566376;25;19934;-73
2024/04/11 04:48:18;;;;;;;;;;;;;;;;;;5566006;25;19926;-73
2024/04/11 04:50:44;;;;;;;;;;;;;;;;;;5570231;25;20283;-73
2024/04/11 04:53:10;;;;;;;;;;;;;;;;;;5571040;25;19933;-73
2024/04/11 04:55:36;;;;;;;;;;;;;;;;;;5603526;25;19926;-73
2024/04/11 04:58:02;;;;;;;;;;;;;;;;;;5570273;25;19926;-73
2024/04/11 05:00:28;;;;;;;;;;;;;;;;;;5603710;25;19994;-73
2024/04/11 05:02:54;;;;;;;;;;;;;;;;;;5603262;25;20374;-73
2024/04/11 05:05:20;;;;;;;;;;;;;;;;;;5570012;25;20259;-71
2024/04/11 05:07:51;;;;;;;;;;;;;;;;;;5602924;25;19937;-73
2024/04/11 05:10:20;;;;;;;;;;;;;;;;;;5603296;25;19971;-72
2024/04/11 05:12:49;;;;;;;;;;;;;;;;;;5603367;25;19934;-72
2024/04/11 05:15:15;;;;;;;;;;;;;;;;;;5569508;25;19927;-72
2024/04/11 05:17:41;;;;;;;;;;;;;;;;;;5603105;25;20290;-72
2024/04/11 05:20:17;;;;;;;;;;;;;;;;;;5569060;25;19933;-72
2024/04/11 05:22:43;;;;;;;;;;;;;;;;;;5602374;25;19954;-72
2024/04/11 05:25:10;;;;;;;;;;;;;;;;;;5602608;25;20204;-72
2024/04/11 05:27:37;;;;;;;;;;;;;;;;;;5568708;25;19927;-71
2024/04/11 05:30:10;;;;;;;;;;;;;;;;;;5591337;25;19934;-72
2024/04/11 05:32:37;;;;;;;;;;;;;;;;;;5591955;25;19934;-71
2024/04/11 05:35:06;;;;;;;;;;;;;;;;;;5602458;25;19934;-71
2024/04/11 05:37:32;;;;;;;;;;;;;;;;;;5601517;25;19926;-72
2024/04/11 05:39:58;;;;;;;;;;;;;;;;;;5568446;25;19993;-72
2024/04/11 05:42:25;;;;;;;;;;;;;;;;;;5601854;25;20358;-72
2024/04/11 05:44:51;;;;;;;;;;;;;;;;;;5600391;25;20255;-72
2024/04/11 05:47:19;;;;;;;;;;;;;;;;;;5599981;25;20254;-72
2024/04/11 05:49:45;;;;;;;;;;;;;;;;;;5597825;25;19926;-72
2024/04/11 05:52:11;;;;;;;;;;;;;;;;;;5596996;25;19933;-71
2024/04/11 05:54:37;;;;;;;;;;;;;;;;;;5599889;25;19934;-71
2024/04/11 05:57:03;;;;;;;;;;;;;;;;;;5543405;25;20289;-70
2024/04/11 05:59:31;;;;;;;;;;;;;;;;;;5586892;25;19930;-72
2024/04/11 06:01:58;;;;;;;;;;;;;;;;;;5589590;25;20278;-71
2024/04/11 06:04:25;;;;;;;;;;;;;;;;;;5599431;25;19930;-72
2024/04/11 06:06:51;;;;;;;;;;;;;;;;;;5564957;25;20362;-71
2024/04/11 06:09:17;;;;;;;;;;;;;;;;;;5599861;25;19934;-72
2024/04/11 06:11:43;;;;;;;;;;;;;;;;;;5567898;25;19934;-72
2024/04/11 06:14:10;;;;;;;;;;;;;;;;;;5603973;25;19926;-71
2024/04/11 06:16:36;;;;;;;;;;;;;;;;;;5604350;25;19966;-70
2024/04/11 06:19:02;;;;;;;;;;;;;;;;;;5570774;25;19926;-71
2024/04/11 06:21:36;;;;;;;;;;;;;;;;;;5567088;25;19927;-71
2024/04/11 06:24:02;;;;;;;;;;;;;;;;;;5600879;25;19930;-73
2024/04/11 06:26:28;;;;;;;;;;;;;;;;;;5603313;25;19930;-72
2024/04/11 06:30:12;;;;;;;;;;;;;;;;;;5578855;25;19934;-70
2024/04/11 06:32:38;;;;;;;;;;;;;;;;;;5579055;25;19926;-72
2024/04/11 06:36:56;;;;;;;;;;;;;;;;;;5579522;25;20372;-73
2024/04/11 06:39:24;;;;;;;;;;;;;;;;;;5579991;25;19927;-75
2024/04/11 06:41:50;;;;;;;;;;;;;;;;;;5545232;25;19928;-72
2024/04/11 06:49:09;;;;;;;;;;;;;;;;;;5542551;25;19935;-72
2024/04/11 06:51:37;;;;;;;;;;;;;;;;;;5545056;25;19955;-72
2024/04/11 06:54:03;;;;;;;;;;;;;;;;;;5541458;25;19959;-73
2024/04/11 07:00:36;;;;;;;;;;;;;;;;;;5620149;25;19933;-72
2024/04/11 07:03:13;;;;;;;;;;;;;;;;;;5621259;25;20326;-73
2024/04/11 07:05:40;;;;;;;;;;;;;;;;;;5620527;25;19927;-74
2024/04/11 07:08:08;;;;;;;;;;;;;;;;;;5620902;25;19934;-72
2024/04/11 07:10:36;;;;;;;;;;;;;;;;;;5617178;25;19939;-73
2024/04/11 07:13:02;;;;;;;;;;;;;;;;;;5621016;25;19930;-77
2024/04/11 07:15:34;;;;;;;;;;;;;;;;;;5610293;25;19997;-69
2024/04/11 07:18:01;;;;;;;;;;;;;;;;;;5576910;25;19927;-67
2024/04/11 07:20:30;;;;;;;;;;;;;;;;;;5546451;25;19959;-67
2024/04/11 07:24:03;;;;;;;;;;;;;;;;;;5444048;26;19929;-68
2024/04/11 07:26:29;;;;;;;;;;;;;;;;;;5410421;26;19936;-68
2024/04/11 07:28:55;;;;;;;;;;;;;;;;;;5423098;26;19953;-66
2024/04/11 07:31:21;;;;;;;;;;;;;;;;;;5426648;26;19940;-70
2024/04/11 07:35:14;;;;;;;;;;;;;;;;;;5616332;25;19933;-67
2024/04/11 07:38:48;;;;;;;;;;;;;;;;;;5618912;25;19933;-69
2024/04/11 07:44:22;;;;;;;;;;;;;;;;;;5469004;26;19935;-67
2024/04/11 07:46:48;;;;;;;;;;;;;;;;;;5468586;26;19936;-66
2024/04/11 07:49:15;;;;;;;;;;;;;;;;;;5467481;26;20290;-67
2024/04/11 07:53:14;;;;;;;;;;;;;;;;;;5579738;25;19927;-67
2024/04/11 07:55:40;;;;;;;;;;;;;;;;;;5580351;25;19937;-67
2024/04/11 07:58:06;;;;;;;;;;;;;;;;;;5578833;25;19927;-67
2024/04/11 08:01:08;;;;;;;;;;;;;;;;;;5607805;25;19933;-65
2024/04/11 08:03:34;;;;;;;;;;;;;;;;;;5579943;25;19927;-66
2024/04/11 08:07:09;;;;;;;;;;;;;;;;;;5613224;25;19934;-67
2024/04/11 08:09:44;;;;;;;;;;;;;;;;;;5613227;25;19926;-70
2024/04/11 08:12:10;;;;;;;;;;;;;;;;;;5581404;25;20354;-67
2024/04/11 08:14:37;;;;;;;;;;;;;;;;;;5582713;25;19934;-68
2024/04/11 08:17:04;;;;;;;;;;;;;;;;;;5619717;25;19927;-68
2024/04/11 08:19:30;;;;;;;;;;;;;;;;;;5539153;25;19995;-67
2024/04/11 08:21:57;;;;;;;;;;;;;;;;;;5538483;25;19955;-67
2024/04/11 08:26:24;;;;;;;;;;;;;;;;;;5497091;25;20575;-66
2024/04/11 08:28:50;;;;;;;;;;;;;;;;;;5474111;26;20384;-67
2024/04/11 08:31:16;;;;;;;;;;;;;;;;;;5470499;26;19969;-67
2024/04/11 08:33:57;;;;;;;;;;;;;;;;;;5312312;25;5794893;-67
2024/04/11 08:36:23;;;;;;;;;;;;;;;;;;5539422;25;19934;-67
2024/04/11 08:38:50;;;;;;;;;;;;;;;;;;5506219;25;19934;-67
2024/04/11 08:43:20;;;;;;;;;;;;;;;;;;5466059;26;19939;-67
2024/04/11 08:47:42;;;;;;;;;;;;;;;;;;5241060;25;6131926;-67
2024/04/11 08:50:10;;;;;;;;;;;;;;;;;;5474348;26;19960;-67
2024/04/11 08:52:36;;;;;;;;;;;;;;;;;;5472604;26;20256;-67
2024/04/11 08:55:03;;;;;;;;;;;;;;;;;;5468236;26;19936;-68
2024/04/11 08:57:30;;;;;;;;;;;;;;;;;;5471943;26;20416;-67
2024/04/11 09:01:08;;;;;;;;;;;;;;;;;;5540855;25;19931;-67
2024/04/11 09:05:31;;;;;;;;;;;;;;;;;;5190689;26;5768266;-66
2024/04/11 09:12:27;;;;;;;;;;;;;;;;;;5264324;25;7163260;-66
2024/04/11 09:14:55;;;;;;;;;;;;;;;;;;5509278;25;19927;-67
2024/04/11 09:20:32;;;;;;;;;;;;;;;;;;5431761;26;19936;-67
2024/04/11 09:23:02;;;;;;;;;;;;;;;;;;5388139;26;20062;-67
2024/04/11 09:27:50;;;;;;;;;;;;;;;;;;5579049;25;19927;-66
2024/04/11 09:30:29;;;;;;;;;;;;;;;;;;5464195;25;19975;-66
2024/04/11 09:32:56;;;;;;;;;;;;;;;;;;5407648;26;19930;-66
2024/04/11 09:35:23;;;;;;;;;;;;;;;;;;5365246;26;20426;-66
2024/04/11 09:37:49;;;;;;;;;;;;;;;;;;5394534;26;19929;-67
2024/04/11 09:42:33;;;;;;;;;;;;;;;;;;5321257;25;2639329;-65
2024/04/11 09:45:03;;;;;;;;;;;;;;;;;;5399900;26;19929;-67
2024/04/11 09:47:32;;;;;;;;;;;;;;;;;;5406980;26;19995;-66
2024/04/11 09:50:09;;;;;;;;;;;;;;;;;;5366034;26;19929;-66
2024/04/11 09:52:41;;;;;;;;;;;;;;;;;;5365502;26;19930;-66
2024/04/11 09:55:09;;;;;;;;;;;;;;;;;;5395716;26;19929;-67
2024/04/11 09:57:36;;;;;;;;;;;;;;;;;;5363204;26;19940;-66
2024/04/11 10:00:07;;;;;;;;;;;;;;;;;;5366725;26;19940;-67
2024/04/11 10:04:21;;;;;;;;;;;;;;;;;;5612827;25;19926;-66
2024/04/11 10:06:48;;;;;;;;;;;;;;;;;;5614654;25;19926;-66
2024/04/11 10:09:17;;;;;;;;;;;;;;;;;;5618249;25;20367;-67
2024/04/11 10:11:45;;;;;;;;;;;;;;;;;;5616810;25;19930;-67
2024/04/11 10:14:11;;;;;;;;;;;;;;;;;;5615929;25;19937;-67
2024/04/11 10:16:37;;;;;;;;;;;;;;;;;;5583394;25;19930;-67
2024/04/11 10:19:07;;;;;;;;;;;;;;;;;;5582884;25;20373;-67
2024/04/11 10:21:33;;;;;;;;;;;;;;;;;;5561246;25;19933;-66
2024/04/11 10:24:03;;;;;;;;;;;;;;;;;;5541202;25;19955;-67
2024/04/11 10:26:29;;;;;;;;;;;;;;;;;;5541850;25;20388;-66
2024/04/11 10:28:56;;;;;;;;;;;;;;;;;;5603697;25;19933;-67
2024/04/11 10:31:25;;;;;;;;;;;;;;;;;;5614416;25;20271;-67
2024/04/11 10:33:58;;;;;;;;;;;;;;;;;;5614648;25;19949;-66
2024/04/11 10:36:25;;;;;;;;;;;;;;;;;;5585740;25;19962;-67
2024/04/11 10:38:52;;;;;;;;;;;;;;;;;;5581040;25;19926;-66
2024/04/11 10:41:19;;;;;;;;;;;;;;;;;;5580655;25;20356;-67
2024/04/11 10:43:46;;;;;;;;;;;;;;;;;;5583184;25;19926;-67
2024/04/11 10:46:12;;;;;;;;;;;;;;;;;;5614309;25;19926;-66
2024/04/11 10:49:15;;;;;;;;;;;;;;;;;;5580293;25;19926;-68
2024/04/11 10:51:41;;;;;;;;;;;;;;;;;;5582858;25;19933;-69
2024/04/11 10:54:10;;;;;;;;;;;;;;;;;;5580563;25;20248;-68
2024/04/11 10:56:39;;;;;;;;;;;;;;;;;;5579929;25;19939;-68
2024/04/11 10:59:06;;;;;;;;;;;;;;;;;;5583384;25;20301;-66
2024/04/11 11:01:33;;;;;;;;;;;;;;;;;;5582535;25;19926;-67
2024/04/11 11:03:59;;;;;;;;;;;;;;;;;;5581725;25;19963;-67
2024/04/11 11:06:25;;;;;;;;;;;;;;;;;;5580014;25;19933;-67
2024/04/11 11:08:51;;;;;;;;;;;;;;;;;;5543188;25;19927;-68
2024/04/11 11:11:21;;;;;;;;;;;;;;;;;;5542049;25;19927;-73
2024/04/11 11:13:52;;;;;;;;;;;;;;;;;;5567537;25;20378;-74
2024/04/11 11:16:21;;;;;;;;;;;;;;;;;;5563714;25;19943;-73
2024/04/11 11:18:47;;;;;;;;;;;;;;;;;;5577816;25;19994;-73
2024/04/11 11:21:16;;;;;;;;;;;;;;;;;;5581207;25;19926;-72
2024/04/11 11:23:45;;;;;;;;;;;;;;;;;;5576444;25;19927;-72
2024/04/11 11:26:11;;;;;;;;;;;;;;;;;;5546364;25;20367;-71
2024/04/11 11:28:38;;;;;;;;;;;;;;;;;;5544179;25;19952;-72
2024/04/11 11:31:04;;;;;;;;;;;;;;;;;;5536887;25;19949;-71
2024/04/11 11:33:30;;;;;;;;;;;;;;;;;;5541500;25;20285;-72
2024/04/11 11:35:56;;;;;;;;;;;;;;;;;;5542013;25;19934;-75
2024/04/11 11:38:22;;;;;;;;;;;;;;;;;;5542172;25;19931;-74
2024/04/11 11:40:54;;;;;;;;;;;;;;;;;;5542040;25;19976;-75
2024/04/11 11:43:19;;;;;;;;;;;;;;;;;;5541695;25;19951;-73
2024/04/11 11:48:50;;;;;;;;;;;;;;;;;;5503653;26;19928;-73
2024/04/11 11:51:19;;;;;;;;;;;;;;;;;;5502783;26;20036;-73
2024/04/11 11:53:45;;;;;;;;;;;;;;;;;;5485227;25;19997;-73
2024/04/11 11:56:12;;;;;;;;;;;;;;;;;;5543364;25;20328;-72
2024/04/11 11:58:43;;;;;;;;;;;;;;;;;;5540335;25;19976;-72
2024/04/11 12:01:35;;;;;;;;;;;;;;;;;;5550530;25;19934;-72
2024/04/11 12:03:55;;;;;;;;;;;;;;;;;;5564595;25;19991;-73
2024/04/11 12:06:21;;;;;;;;;;;;;;;;;;5542906;25;19963;-71
2024/04/11 12:08:47;;;;;;;;;;;;;;;;;;5528017;26;19928;-73
2024/04/11 12:11:14;;;;;;;;;;;;;;;;;;5523490;26;19943;-72
2024/04/11 12:13:44;;;;;;;;;;;;;;;;;;5525524;26;19931;-72
2024/04/11 12:16:15;;;;;;;;;;;;;;;;;;5527811;26;20345;-72
2024/04/11 12:18:41;;;;;;;;;;;;;;;;;;5525480;26;19939;-72
2024/04/11 12:21:13;;;;;;;;;;;;;;;;;;5525239;26;19934;-70
2024/04/11 12:23:42;;;;;;;;;;;;;;;;;;5528806;26;20383;-72
2024/04/11 12:26:11;;;;;;;;;;;;;;;;;;5524654;25;19942;-73
2024/04/11 12:28:37;;;;;;;;;;;;;;;;;;5525504;26;19972;-72
2024/04/11 12:31:07;;;;;;;;;;;;;;;;;;5526607;26;19928;-73
2024/04/11 12:33:34;;;;;;;;;;;;;;;;;;5526670;26;19927;-73
2024/04/11 12:36:08;;;;;;;;;;;;;;;;;;5525680;26;20375;-74
2024/04/11 12:38:39;;;;;;;;;;;;;;;;;;5525034;26;20378;-73
2024/04/11 12:41:05;;;;;;;;;;;;;;;;;;5526004;26;19943;-74
2024/04/11 12:43:35;;;;;;;;;;;;;;;;;;5524640;25;20014;-74
2024/04/11 12:46:01;;;;;;;;;;;;;;;;;;5522231;26;19934;-74
2024/04/11 12:48:34;;;;;;;;;;;;;;;;;;5489620;26;20368;-73
2024/04/11 12:51:00;;;;;;;;;;;;;;;;;;5478089;26;19928;-72
2024/04/11 12:53:28;;;;;;;;;;;;;;;;;;5479525;26;19996;-73
2024/04/11 12:55:57;;;;;;;;;;;;;;;;;;5481442;26;19932;-73
2024/04/11 12:58:26;;;;;;;;;;;;;;;;;;5480936;26;19932;-72
2024/04/11 13:00:57;;;;;;;;;;;;;;;;;;5480346;26;19932;-72
2024/04/11 13:03:34;;;;;;;;;;;;;;;;;;5518759;26;19942;-72
2024/04/11 13:06:07;;;;;;;;;;;;;;;;;;5518521;26;19928;-73
2024/04/11 13:08:33;;;;;;;;;;;;;;;;;;5481180;26;19928;-72
2024/04/11 13:11:06;;;;;;;;;;;;;;;;;;5479942;26;19928;-73
2024/04/11 13:13:32;;;;;;;;;;;;;;;;;;5480969;26;19932;-72
2024/04/11 13:16:00;;;;;;;;;;;;;;;;;;5481246;26;19935;-73
2024/04/11 13:18:29;;;;;;;;;;;;;;;;;;5480917;26;19977;-74
2024/04/11 13:20:55;;;;;;;;;;;;;;;;;;5479616;26;19991;-74
2024/04/11 13:23:21;;;;;;;;;;;;;;;;;;5546062;25;19927;-72
2024/04/11 13:25:47;;;;;;;;;;;;;;;;;;5516441;26;20267;-72
2024/04/11 13:28:13;;;;;;;;;;;;;;;;;;5515205;26;20439;-72
2024/04/11 13:30:42;;;;;;;;;;;;;;;;;;5510219;26;19931;-72
2024/04/11 13:33:14;;;;;;;;;;;;;;;;;;5515921;26;20442;-73
2024/04/11 13:35:48;;;;;;;;;;;;;;;;;;5514079;26;19927;-73
2024/04/11 13:38:15;;;;;;;;;;;;;;;;;;5547113;25;20292;-72
2024/04/11 13:43:09;;;;;;;;;;;;;;;;;;5515115;26;19931;-73
2024/04/11 13:45:41;;;;;;;;;;;;;;;;;;5514353;26;19942;-73
2024/04/11 13:48:07;;;;;;;;;;;;;;;;;;5513165;26;19932;-72
2024/04/11 13:50:52;;;;;;;;;;;;;;;;;;5496059;26;19961;-73
2024/04/11 13:53:20;;;;;;;;;;;;;;;;;;5479436;26;19928;-72
2024/04/11 13:55:46;;;;;;;;;;;;;;;;;;5478255;26;19928;-73
2024/04/11 13:58:12;;;;;;;;;;;;;;;;;;5475634;26;19928;-72
2024/04/11 14:00:38;;;;;;;;;;;;;;;;;;5479389;26;19928;-72
2024/04/11 14:03:36;;;;;;;;;;;;;;;;;;5479554;26;19928;-72
2024/04/11 14:06:05;;;;;;;;;;;;;;;;;;5479753;26;19992;-71
2024/04/11 14:08:31;;;;;;;;;;;;;;;;;;5480116;26;20000;-73
2024/04/11 14:10:59;;;;;;;;;;;;;;;;;;5479675;26;19928;-72
2024/04/11 14:13:30;;;;;;;;;;;;;;;;;;5517846;26;19935;-73
2024/04/11 14:16:04;;;;;;;;;;;;;;;;;;5480122;26;19936;-71
2024/04/11 14:18:30;;;;;;;;;;;;;;;;;;5479381;26;19976;-71
2024/04/11 14:20:57;;;;;;;;;;;;;;;;;;5479884;26;19934;-73
2024/04/11 14:23:44;;;;;;;;;;;;;;;;;;5516313;26;19957;-72
2024/04/11 14:26:08;;;;;;;;;;;;;;;;;;5479876;26;20380;-73
2024/04/11 14:28:35;;;;;;;;;;;;;;;;;;5479661;26;19954;-72
2024/04/11 14:31:08;;;;;;;;;;;;;;;;;;5479492;26;20374;-72
2024/04/11 14:36:28;;;;;;;;;;;;;;;;;;5480045;26;20305;-72
2024/04/11 14:39:05;;;;;;;;;;;;;;;;;;5478892;26;19936;-73
2024/04/11 14:41:31;;;;;;;;;;;;;;;;;;5479609;26;19928;-72
2024/04/11 14:43:59;;;;;;;;;;;;;;;;;;5516612;26;20402;-72
2024/04/11 14:46:25;;;;;;;;;;;;;;;;;;5479328;26;19960;-73
2024/04/11 14:48:53;;;;;;;;;;;;;;;;;;5517063;26;19932;-72
2024/04/11 14:51:26;;;;;;;;;;;;;;;;;;5479612;26;20250;-73
2024/04/11 14:53:52;;;;;;;;;;;;;;;;;;5479220;26;19956;-73
2024/04/11 14:56:18;;;;;;;;;;;;;;;;;;5479793;26;19932;-73
2024/04/11 14:58:47;;;;;;;;;;;;;;;;;;5516701;26;19995;-73
2024/04/11 15:01:16;;;;;;;;;;;;;;;;;;5479680;26;20260;-72
2024/04/11 15:03:44;;;;;;;;;;;;;;;;;;5479706;26;20371;-73
2024/04/11 15:06:13;;;;;;;;;;;;;;;;;;5516623;26;19928;-74
2024/04/11 15:08:41;;;;;;;;;;;;;;;;;;5479351;26;19928;-72
2024/04/11 15:11:11;;;;;;;;;;;;;;;;;;5479118;26;19952;-72
2024/04/11 15:13:37;;;;;;;;;;;;;;;;;;5478841;26;19995;-72
2024/04/11 15:19:03;;;;;;;;;;;;;;;;;;5483190;25;19936;-72
2024/04/11 15:21:35;;;;;;;;;;;;;;;;;;5478666;26;20364;-72
2024/04/11 15:24:01;;;;;;;;;;;;;;;;;;5479072;26;19935;-73
2024/04/11 15:26:27;;;;;;;;;;;;;;;;;;5516359;26;19956;-72
2024/04/11 15:28:53;;;;;;;;;;;;;;;;;;5516074;26;20261;-72
2024/04/11 15:31:31;;;;;;;;;;;;;;;;;;5479113;26;19928;-72
2024/04/11 15:33:57;;;;;;;;;;;;;;;;;;5516517;26;19928;-72
2024/04/11 15:36:31;;;;;;;;;;;;;;;;;;5520247;26;19928;-72
2024/04/11 15:39:00;;;;;;;;;;;;;;;;;;5482444;26;20341;-72
2024/04/11 15:41:29;;;;;;;;;;;;;;;;;;5481805;26;19939;-72
2024/04/11 15:43:54;;;;;;;;;;;;;;;;;;5520032;26;19932;-72
2024/04/11 15:46:20;;;;;;;;;;;;;;;;;;5482669;26;20384;-72
2024/04/11 15:48:48;;;;;;;;;;;;;;;;;;5482209;26;20246;-73
2024/04/11 15:51:15;;;;;;;;;;;;;;;;;;5482953;26;19928;-73
2024/04/11 15:53:49;;;;;;;;;;;;;;;;;;5482784;26;19929;-73
2024/04/11 15:56:15;;;;;;;;;;;;;;;;;;5482384;26;20409;-72
2024/04/11 15:58:54;;;;;;;;;;;;;;;;;;5482814;26;19932;-72
2024/04/11 16:01:28;;;;;;;;;;;;;;;;;;5482790;26;20313;-72
2024/04/11 16:03:54;;;;;;;;;;;;;;;;;;5482369;26;19927;-72
2024/04/11 16:06:25;;;;;;;;;;;;;;;;;;5482603;26;19929;-73
2024/04/11 16:08:57;;;;;;;;;;;;;;;;;;5482047;26;19934;-73
2024/04/11 16:11:23;;;;;;;;;;;;;;;;;;5520322;26;19932;-73
2024/04/11 16:13:53;;;;;;;;;;;;;;;;;;5482567;26;19935;-72
2024/04/11 16:16:21;;;;;;;;;;;;;;;;;;5481958;26;19928;-72
2024/04/11 16:18:47;;;;;;;;;;;;;;;;;;5482531;26;20260;-73
2024/04/11 16:21:16;;;;;;;;;;;;;;;;;;5519943;26;19928;-72
2024/04/11 16:23:54;;;;;;;;;;;;;;;;;;5519505;26;19940;-72
2024/04/11 16:26:25;;;;;;;;;;;;;;;;;;5482273;26;19936;-72
2024/04/11 16:28:51;;;;;;;;;;;;;;;;;;5482081;26;19928;-72
2024/04/11 16:31:25;;;;;;;;;;;;;;;;;;5481549;26;19935;-72
2024/04/11 16:33:51;;;;;;;;;;;;;;;;;;5519816;26;20249;-73
2024/04/11 16:36:27;;;;;;;;;;;;;;;;;;5482038;26;19972;-73
2024/04/11 16:38:56;;;;;;;;;;;;;;;;;;5519288;26;19934;-73
2024/04/11 16:41:23;;;;;;;;;;;;;;;;;;5519781;26;20416;-74
2024/04/11 16:43:51;;;;;;;;;;;;;;;;;;5482143;26;19928;-74
2024/04/11 16:46:18;;;;;;;;;;;;;;;;;;5519241;26;19931;-73
2024/04/11 16:48:44;;;;;;;;;;;;;;;;;;5481678;26;20368;-72
2024/04/11 16:51:10;;;;;;;;;;;;;;;;;;5481274;26;19928;-73
2024/04/11 16:53:46;;;;;;;;;;;;;;;;;;5481957;26;19928;-74
2024/04/11 16:56:12;;;;;;;;;;;;;;;;;;5481760;26;19996;-73
2024/04/11 16:58:53;;;;;;;;;;;;;;;;;;5481134;26;19932;-74
2024/04/11 17:01:19;;;;;;;;;;;;;;;;;;5519221;26;19932;-72
2024/04/11 17:03:53;;;;;;;;;;;;;;;;;;5481855;26;19932;-74
2024/04/11 17:06:21;;;;;;;;;;;;;;;;;;5481231;26;19928;-74
2024/04/11 17:08:47;;;;;;;;;;;;;;;;;;5481534;26;20387;-73
2024/04/11 17:11:19;;;;;;;;;;;;;;;;;;5481719;26;19928;-75
2024/04/11 17:13:45;;;;;;;;;;;;;;;;;;5481009;26;19936;-73
2024/04/11 17:19:39;;;;;;;;;;;;;;;;;;5622024;25;19926;-73
2024/04/11 17:22:05;;;;;;;;;;;;;;;;;;5588988;25;19952;-73
2024/04/11 17:24:35;;;;;;;;;;;;;;;;;;5588847;25;19926;-73
2024/04/11 17:27:06;;;;;;;;;;;;;;;;;;5621996;25;19938;-73
2024/04/11 17:29:59;;;;;;;;;;;;;;;;;;5622353;25;19926;-73
2024/04/11 17:32:38;;;;;;;;;;;;;;;;;;5588629;25;19926;-73
2024/04/11 17:35:18;;;;;;;;;;;;;;;;;;5622025;25;19930;-73
2024/04/11 17:37:47;;;;;;;;;;;;;;;;;;5588555;25;19934;-74
2024/04/11 17:42:31;;;;;;;;;;;;;;;;;;5621717;25;20266;-72
2024/04/11 17:44:46;;;;;;;;;;;;;;;;;;5595855;25;20452;-73
2024/04/11 17:49:55;;;;;;;;;;;;;;;;;;5621861;25;19923;-73
2024/04/11 17:52:26;;;;;;;;;;;;;;;;;;5621600;25;19938;-72
2024/04/11 17:54:56;;;;;;;;;;;;;;;;;;5621910;25;19926;-73
2024/04/11 17:57:23;;;;;;;;;;;;;;;;;;5588685;25;19934;-73